OITM  Sahand  Airport

Maragheh, Iran

Add Bookmark
ICAO OITM
IATA ACP
Type Airport
Status Operational
Latitude
37° 20' 52" N
37.348000
Longitude
46° 7' 40" E
46.127899
Local (DST + 5) UTC (GMT + 4)
May 26, 2015 04:03 May 26, 2015 11:33
Sunrise-Sunset Local UTC
Begin Civil Twilight 05:37 01:07
Sunrise 06:07 01:37
Sunset 08:37 16:07
End Civil Twilight 09:07 16:37
VFR
VFR
MVFR
MVFR
IFR
VFR
LIFR
VFR
Unknown
Unavailable

Current Weather

METAR Observed VFR
OITM 261100Z 26010G21KT 9999 FEW035TCU FEW036CB SCT190 27/02 Q1015 Tue, May 26, 2015 @ 11:00 UTC
(33 Minutes ago)
Visual Flight Rules
Wind Visibility Clouds Conditions
260° at 10 knots (19 kph)
Gusting to 21 knots (39 kph)
10 km or more
  • Few at 3,500 ft AGL
  • Few at 3,600 ft AGL
  • Scattered at 19,000 ft AGL
  • No significant weather
Temperatures Readings Precipitation
Current Temp
27°C
81°F
Dewpoint
2°C
36°F
Humidity 20%
Altimeter 29.97" Hg
Sea Level Pressure 1,015 mb
Field Elevation
1,340 m
4,396 ft
None Recorded
-
-

CheckWX.com is intended as a tool to help pilots better visualize weather data. It is not intended as a substitute for an official weather briefing obtained from a Flight Service Station. CheckWX.com does not meet the FAA requirements for an official pre-flight weather briefing. Therefore, it's important that pilots still call and obtain an official FSS pre-flight weather briefing.

© 2007-2015 CheckWX.com
11:33:20 UTC